Crandall, TX (75114)

8:31 PM CDT on May 28, 2017 (GMT -0500)
Briar Creek | | Change Station
Active Advisory: Severe Thunderstorm Watch

Elev 440 ft 32.64 °N, 96.45 °W | Updated 35 seconds ago

Mostly Cloudy
Mostly Cloudy
72.7 °F
Feels Like 71 °F
N
2.7
Wind Variable Wind from North

Today
High -- | Low -- °F
--% Chance of Precip.
Yesterday
High -- | Low -- °F
Precip. -- in
Pressure 29.93 in
Visibility 10.0 miles
Clouds Mostly Cloudy 6000 ft
Heat Index 71 °F
Dew Point 68 °F
Humidity 86%
Rainfall 0.72 in
Snow Depth Not available.
6:20 AM 8:26 PM
Waxing Crescent, 15% visible
METAR KHQZ 290050Z 01005KT 10SM BKN060 23/21 A2993
Pressure 29.93 in
Visibility 10.0 miles
Clouds Mostly Cloudy 6000 ft
Heat Index 71 °F
Dew Point 68 °F
Humidity 86%
Rainfall 0.72 in
Snow Depth Not available.
6:20 AM 8:26 PM
Waxing Crescent, 15% visible
METAR KHQZ 290050Z 01005KT 10SM BKN060 23/21 A2993

Get Your Daily Forecast Email!

Thanks for signing up!

Be on the lookout for a verification email in your inbox.

You'll start receiving severe weather alerts in your inbox..

×

10-Day Weather Forecast

Almanac

Astronomy

May. 28, 2017 Rise Set
Actual Time
Civil Twilight
Nautical Twilight
Astronomical Twilight
Moon
Length of Visible Light
Length of Day
Tomorrow will be .
, % of the Moon is Illuminated

Today's Extremes

State Highs State Lows

Community

WunderPhotos

Category 6

Welcome to Category 6. This is the collective home for Weather Underground's featured writeups by Dr. Jeff Masters (right), Bob Henson (left), Chris Burt, and other regular contributors.

Nearby

Air Quality

  Air Quality AQ Index Pollutant
Not available.

Snow Depth

Station Depth Elevation

Earthquake Activity

City Distance Mag. Time & Date
Minimum magnitude displayed is 2.5.

Coastal Water Temperatures

Place Temperature

Stations

Nearby Weather Stations

Station Location Temp. Windchill Dew Point Humidity Wind Precip. Elev Updated Type
                   

Watches & Warnings

Severe Thunderstorm Watch
Issued: 8:24 PM CDT May. 28, 2017 – National Weather Service

Severe Thunderstorm Watch 293 remains in effect until 1000 PM CDT
for the following locations


TX
. Texas counties included are

Anderson Atascosa Austin
Bandera Bastrop Bell
Bexar blanco Brazos
Burleson Burnet Caldwell
Colorado Comal Coryell
DeWitt Dimmit Edwards
Falls Fayette Freestone
frio Gillespie Gonzales
Grimes Guadalupe Hays
Henderson Houston Karnes
Kaufman Kendall Kerr
Kinney Lampasas Lavaca
Lee Leon Limestone
Llano McLennan Madison
Maverick Medina Milam
Montgomery Navarro Polk
rains real Robertson
San Jacinto Travis Trinity
Uvalde Val Verde Van Zandt
Walker Waller Washington
Williamson Wilson Zavala